Katie Gonsoulin — WDD4496 — position and weather

sailwx.info

Track history (hours):
 
Tides and Currents Weather Stations Pressure Air Temp Water Temp Dewpoint Dewpoint Depression Visibility Wind Speed Wind Dir Waves Ship Positions

Katie Gonsoulin

Owner: LeBeouf Bros. Towing, LLC, Houma, LA. More information available from US FCC via Universal Licensing System and Coast Guard Vessel Documentation Center.

Last reported at 2017-Sep-16 13:09 UTC. Time now 2017-Sep-22 00:50 UTC.
Position N 29°44' W 095°03'.

Length 32 m; draft 3 m.

Type: Towing. MMSI: 367145440.

Date/timePositionNaut miles runAvg speedWind from/ knotsBaromVisibWave heightAir tempDewpointWater temp
2017-Sep-16 13:09N 29°44' W 095°03'1 5.4
2017-Sep-16 12:56N 29°44' W 095°01'2 0.3
2017-Sep-16 07:40N 29°43' W 095°03'1 2.3
2017-Sep-16 07:15N 29°42' W 095°02'1 2.3
2017-Sep-16 07:00N 29°42' W 095°01'1 1.2
2017-Sep-16 06:29N 29°42' W 095°00'1 2.5
2017-Sep-16 06:00N 29°41' W 094°59'3 5.2
2017-Sep-16 05:30N 29°39' W 094°58'3 5.7
2017-Sep-16 05:00N 29°36' W 094°57'3 5.7
2017-Sep-16 04:30N 29°34' W 094°55'73 4.1
2017-Sep-15 10:40N 30°04' W 093°38'1 4.7
2017-Sep-15 10:28N 30°04' W 093°37'2 4.7
2017-Sep-15 10:00N 30°04' W 093°35'2 4.8
2017-Sep-15 09:30N 30°04' W 093°32'2 4.8
2017-Sep-15 09:00N 30°04' W 093°29'2 4.8
2017-Sep-15 08:30N 30°04' W 093°26'2 4.9
2017-Sep-15 08:00N 30°04' W 093°23'2 4.5
2017-Sep-15 07:30N 30°04' W 093°21'2 4.1
2017-Sep-15 07:00N 30°06' W 093°20'2 3.3
2017-Sep-15 06:31N 30°07' W 093°20'1 1.4
2017-Sep-15 06:00N 30°08' W 093°20'0 0.2
2017-Sep-15 05:31N 30°08' W 093°20'0 0.8
2017-Sep-15 05:00N 30°08' W 093°19'0 0.0
2017-Sep-15 04:30N 30°08' W 093°19'0 0.0
2017-Sep-15 04:00N 30°08' W 093°19'0 0.0
2017-Sep-15 03:30N 30°08' W 093°19'0 0.0
2017-Sep-15 03:00N 30°08' W 093°19'0 0.0
2017-Sep-15 02:30N 30°08' W 093°19'0 0.0
2017-Sep-15 02:00N 30°08' W 093°19'0 0.0
2017-Sep-15 01:30N 30°08' W 093°19'0 0.0
2017-Sep-15 01:00N 30°08' W 093°19'0 0.0
2017-Sep-15 00:30N 30°08' W 093°19'0 0.0
2017-Sep-15 00:00N 30°08' W 093°19'0 0.0
2017-Sep-14 23:30N 30°08' W 093°19'0 0.0
2017-Sep-14 23:00N 30°08' W 093°19'0 0.0
2017-Sep-14 22:30N 30°08' W 093°19'0 0.0
2017-Sep-14 22:00N 30°08' W 093°19'0 0.0
2017-Sep-14 21:30N 30°08' W 093°19'0 0.0
2017-Sep-14 21:00N 30°08' W 093°19'0 0.0
2017-Sep-14 20:30N 30°08' W 093°19'0 0.0
2017-Sep-14 20:00N 30°08' W 093°19'0 0.0
2017-Sep-14 19:30N 30°08' W 093°19'0 0.0
2017-Sep-14 19:00N 30°08' W 093°19'0 0.0
2017-Sep-14 18:30N 30°08' W 093°19'0 0.0
2017-Sep-14 18:00N 30°08' W 093°19'0 0.0
2017-Sep-14 17:30N 30°08' W 093°19'0 0.0
2017-Sep-14 17:00N 30°08' W 093°19'0 0.0
2017-Sep-14 16:30N 30°08' W 093°19'0 0.0
2017-Sep-14 16:00N 30°08' W 093°19'0 0.0
2017-Sep-14 15:30N 30°08' W 093°19'0 0.0
2017-Sep-14 15:00N 30°08' W 093°19'0 0.0
2017-Sep-14 14:30N 30°08' W 093°19'0 0.0
2017-Sep-14 14:00N 30°08' W 093°19'0 0.0
2017-Sep-14 13:31N 30°08' W 093°19'0 0.0
2017-Sep-14 12:56N 30°08' W 093°19'0 0.0
2017-Sep-14 12:30N 30°08' W 093°19'0 0.0
2017-Sep-14 12:01N 30°08' W 093°19'0 0.0
2017-Sep-14 11:30N 30°08' W 093°19'0 0.0
2017-Sep-14 11:00N 30°08' W 093°19'0 0.0
2017-Sep-14 10:30N 30°08' W 093°19'0 0.2
2017-Sep-14 10:01N 30°08' W 093°19'1 2.0
2017-Sep-14 09:29N 30°07' W 093°20'3 5.1
2017-Sep-14 09:00N 30°05' W 093°20'2 3.7
2017-Sep-14 08:30N 30°04' W 093°22'3 5.1
2017-Sep-14 08:00N 30°04' W 093°25'4 6.6
2017-Sep-14 07:21N 30°04' W 093°30'79 3.3
2017-Sep-13 07:39N 29°30' W 094°52'2 6.4
2017-Sep-13 07:24N 29°31' W 094°53'2 6.1
2017-Sep-13 07:00N 29°33' W 094°54'3 6.6
2017-Sep-13 06:30N 29°36' W 094°57'3 6.5
2017-Sep-13 06:01N 29°39' W 094°58'3 6.6
2017-Sep-13 05:30N 29°42' W 094°60'  
2017-Sep-09 05:23N 29°46' W 095°04'3 5.9
2017-Sep-09 04:51N 29°44' W 095°02'2 3.1
2017-Sep-09 04:19N 29°43' W 095°03'0 0.0
2017-Sep-08 23:37N 29°43' W 095°03'0 0.0
2017-Sep-08 23:15N 29°43' W 095°03'0 0.0
2017-Sep-08 22:57N 29°43' W 095°03'0 0.0
2017-Sep-08 22:26N 29°43' W 095°03'0 0.0
2017-Sep-08 20:12N 29°43' W 095°03'0 0.0
2017-Sep-08 19:49N 29°43' W 095°03'0 0.0
2017-Sep-08 19:21N 29°42' W 095°03'0 0.0
2017-Sep-08 13:25N 29°43' W 095°03'0 0.0
2017-Sep-08 12:47N 29°43' W 095°03'0 0.0
2017-Sep-08 05:42N 29°43' W 095°03'0 0.0
2017-Sep-08 05:27N 29°43' W 095°03'0 0.0
2017-Sep-08 04:58N 29°43' W 095°03'0 0.0
2017-Sep-08 04:14N 29°43' W 095°03'0 0.0
2017-Sep-08 03:52N 29°43' W 095°03'0 0.0
2017-Sep-08 03:22N 29°43' W 095°03'0 0.0
2017-Sep-08 03:00N 29°43' W 095°03'0 0.0
2017-Sep-08 01:48N 29°43' W 095°03'0 0.0
2017-Sep-08 01:28N 29°43' W 095°03'0 0.0
2017-Sep-08 00:49N 29°42' W 095°03'0 0.0
2017-Sep-08 00:29N 29°42' W 095°03'0 0.0
2017-Sep-07 23:29N 29°43' W 095°03'0 0.0
2017-Sep-07 22:54N 29°43' W 095°03'0 0.0
2017-Sep-07 21:41N 29°43' W 095°03'0 0.0
2017-Sep-07 21:28N 29°43' W 095°03'0 0.0
2017-Sep-07 18:17N 29°43' W 095°03'0 0.0
2017-Sep-07 14:17N 29°43' W 095°03'0 0.0
2017-Sep-07 13:18N 29°43' W 095°03'0 0.0
2017-Sep-07 11:48N 29°42' W 095°03'0 0.0
2017-Sep-07 11:25N 29°42' W 095°03'0 0.0
2017-Sep-07 11:00N 29°42' W 095°03'0 0.0
2017-Sep-07 10:28N 29°42' W 095°03'0 0.0
2017-Sep-07 08:45N 29°43' W 095°03'0 0.0
2017-Sep-07 08:27N 29°43' W 095°03'0 0.0
2017-Sep-07 06:49N 29°43' W 095°03'0 0.0
2017-Sep-07 06:25N 29°43' W 095°03'0 0.0
2017-Sep-07 05:56N 29°43' W 095°03'0 0.0
2017-Sep-07 05:30N 29°43' W 095°03'0 0.0
2017-Sep-07 04:58N 29°43' W 095°03'0 0.0
2017-Sep-07 04:27N 29°42' W 095°03'0 0.0
2017-Sep-07 03:47N 29°43' W 095°03'0 0.0
2017-Sep-07 03:22N 29°43' W 095°03'0 0.0
2017-Sep-07 02:58N 29°42' W 095°03'0 0.0
2017-Sep-07 02:24N 29°42' W 095°03'0 0.0
2017-Sep-07 00:56N 29°42' W 095°03'0 0.0
2017-Sep-06 23:26N 29°43' W 095°03'0 0.0
2017-Sep-06 22:27N 29°43' W 095°03'0 0.0
2017-Sep-06 21:52N 29°43' W 095°03'0 0.0
2017-Sep-06 21:23N 29°42' W 095°03'2 1.7
2017-Sep-06 20:15N 29°44' W 095°01'0 0.2
2017-Sep-06 19:57N 29°44' W 095°01'0 0.0
2017-Sep-06 15:03N 29°44' W 095°01'0 0.1
2017-Sep-06 14:34N 29°44' W 095°01'  
Track history (hours):
 
Tides and Currents Weather Stations Pressure Air Temp Water Temp Dewpoint Dewpoint Depression Visibility Wind Speed Wind Dir Waves Ship Positions

Katie Gonsoulin

Owner: LeBeouf Bros. Towing, LLC, Houma, LA. More information available from US FCC via Universal Licensing System and Coast Guard Vessel Documentation Center.

Last reported at 2017-Sep-16 13:09 UTC. Time now 2017-Sep-22 00:50 UTC.
Position N 29°44' W 095°03'.

Length 32 m; draft 3 m.

Type: Towing. MMSI: 367145440.

Date/timePositionNaut miles runAvg speedWind from/ knotsBaromVisibWave heightAir tempDewpointWater temp
2017-Sep-16 13:09N 29°44' W 095°03'1 5.4
2017-Sep-16 12:56N 29°44' W 095°01'2 0.3
2017-Sep-16 07:40N 29°43' W 095°03'1 2.3
2017-Sep-16 07:15N 29°42' W 095°02'1 2.3
2017-Sep-16 07:00N 29°42' W 095°01'1 1.2
2017-Sep-16 06:29N 29°42' W 095°00'1 2.5
2017-Sep-16 06:00N 29°41' W 094°59'3 5.2
2017-Sep-16 05:30N 29°39' W 094°58'3 5.7
2017-Sep-16 05:00N 29°36' W 094°57'3 5.7
2017-Sep-16 04:30N 29°34' W 094°55'73 4.1
2017-Sep-15 10:40N 30°04' W 093°38'1 4.7
2017-Sep-15 10:28N 30°04' W 093°37'2 4.7
2017-Sep-15 10:00N 30°04' W 093°35'2 4.8
2017-Sep-15 09:30N 30°04' W 093°32'2 4.8
2017-Sep-15 09:00N 30°04' W 093°29'2 4.8
2017-Sep-15 08:30N 30°04' W 093°26'2 4.9
2017-Sep-15 08:00N 30°04' W 093°23'2 4.5
2017-Sep-15 07:30N 30°04' W 093°21'2 4.1
2017-Sep-15 07:00N 30°06' W 093°20'2 3.3
2017-Sep-15 06:31N 30°07' W 093°20'1 1.4
2017-Sep-15 06:00N 30°08' W 093°20'0 0.2
2017-Sep-15 05:31N 30°08' W 093°20'0 0.8
2017-Sep-15 05:00N 30°08' W 093°19'0 0.0
2017-Sep-15 04:30N 30°08' W 093°19'0 0.0
2017-Sep-15 04:00N 30°08' W 093°19'0 0.0
2017-Sep-15 03:30N 30°08' W 093°19'0 0.0
2017-Sep-15 03:00N 30°08' W 093°19'0 0.0
2017-Sep-15 02:30N 30°08' W 093°19'0 0.0
2017-Sep-15 02:00N 30°08' W 093°19'0 0.0
2017-Sep-15 01:30N 30°08' W 093°19'0 0.0
2017-Sep-15 01:00N 30°08' W 093°19'0 0.0
2017-Sep-15 00:30N 30°08' W 093°19'0 0.0
2017-Sep-15 00:00N 30°08' W 093°19'0 0.0
2017-Sep-14 23:30N 30°08' W 093°19'0 0.0
2017-Sep-14 23:00N 30°08' W 093°19'0 0.0
2017-Sep-14 22:30N 30°08' W 093°19'0 0.0
2017-Sep-14 22:00N 30°08' W 093°19'0 0.0
2017-Sep-14 21:30N 30°08' W 093°19'0 0.0
2017-Sep-14 21:00N 30°08' W 093°19'0 0.0
2017-Sep-14 20:30N 30°08' W 093°19'0 0.0
2017-Sep-14 20:00N 30°08' W 093°19'0 0.0
2017-Sep-14 19:30N 30°08' W 093°19'0 0.0
2017-Sep-14 19:00N 30°08' W 093°19'0 0.0
2017-Sep-14 18:30N 30°08' W 093°19'0 0.0
2017-Sep-14 18:00N 30°08' W 093°19'0 0.0
2017-Sep-14 17:30N 30°08' W 093°19'0 0.0
2017-Sep-14 17:00N 30°08' W 093°19'0 0.0
2017-Sep-14 16:30N 30°08' W 093°19'0 0.0
2017-Sep-14 16:00N 30°08' W 093°19'0 0.0
2017-Sep-14 15:30N 30°08' W 093°19'0 0.0
2017-Sep-14 15:00N 30°08' W 093°19'0 0.0
2017-Sep-14 14:30N 30°08' W 093°19'0 0.0
2017-Sep-14 14:00N 30°08' W 093°19'0 0.0
2017-Sep-14 13:31N 30°08' W 093°19'0 0.0
2017-Sep-14 12:56N 30°08' W 093°19'0 0.0
2017-Sep-14 12:30N 30°08' W 093°19'0 0.0
2017-Sep-14 12:01N 30°08' W 093°19'0 0.0
2017-Sep-14 11:30N 30°08' W 093°19'0 0.0
2017-Sep-14 11:00N 30°08' W 093°19'0 0.0
2017-Sep-14 10:30N 30°08' W 093°19'0 0.2
2017-Sep-14 10:01N 30°08' W 093°19'1 2.0
2017-Sep-14 09:29N 30°07' W 093°20'3 5.1
2017-Sep-14 09:00N 30°05' W 093°20'2 3.7
2017-Sep-14 08:30N 30°04' W 093°22'3 5.1
2017-Sep-14 08:00N 30°04' W 093°25'4 6.6
2017-Sep-14 07:21N 30°04' W 093°30'79 3.3
2017-Sep-13 07:39N 29°30' W 094°52'2 6.4
2017-Sep-13 07:24N 29°31' W 094°53'2 6.1
2017-Sep-13 07:00N 29°33' W 094°54'3 6.6
2017-Sep-13 06:30N 29°36' W 094°57'3 6.5
2017-Sep-13 06:01N 29°39' W 094°58'3 6.6
2017-Sep-13 05:30N 29°42' W 094°60'  
2017-Sep-09 05:23N 29°46' W 095°04'3 5.9
2017-Sep-09 04:51N 29°44' W 095°02'2 3.1
2017-Sep-09 04:19N 29°43' W 095°03'0 0.0
2017-Sep-08 23:37N 29°43' W 095°03'0 0.0
2017-Sep-08 23:15N 29°43' W 095°03'0 0.0
2017-Sep-08 22:57N 29°43' W 095°03'0 0.0
2017-Sep-08 22:26N 29°43' W 095°03'0 0.0
2017-Sep-08 20:12N 29°43' W 095°03'0 0.0
2017-Sep-08 19:49N 29°43' W 095°03'0 0.0
2017-Sep-08 19:21N 29°42' W 095°03'0 0.0
2017-Sep-08 13:25N 29°43' W 095°03'0 0.0
2017-Sep-08 12:47N 29°43' W 095°03'0 0.0
2017-Sep-08 05:42N 29°43' W 095°03'0 0.0
2017-Sep-08 05:27N 29°43' W 095°03'0 0.0
2017-Sep-08 04:58N 29°43' W 095°03'0 0.0
2017-Sep-08 04:14N 29°43' W 095°03'0 0.0
2017-Sep-08 03:52N 29°43' W 095°03'0 0.0
2017-Sep-08 03:22N 29°43' W 095°03'0 0.0
2017-Sep-08 03:00N 29°43' W 095°03'0 0.0
2017-Sep-08 01:48N 29°43' W 095°03'0 0.0
2017-Sep-08 01:28N 29°43' W 095°03'0 0.0
2017-Sep-08 00:49N 29°42' W 095°03'0 0.0
2017-Sep-08 00:29N 29°42' W 095°03'0 0.0
2017-Sep-07 23:29N 29°43' W 095°03'0 0.0
2017-Sep-07 22:54N 29°43' W 095°03'0 0.0
2017-Sep-07 21:41N 29°43' W 095°03'0 0.0
2017-Sep-07 21:28N 29°43' W 095°03'0 0.0
2017-Sep-07 18:17N 29°43' W 095°03'0 0.0
2017-Sep-07 14:17N 29°43' W 095°03'0 0.0
2017-Sep-07 13:18N 29°43' W 095°03'0 0.0
2017-Sep-07 11:48N 29°42' W 095°03'0 0.0
2017-Sep-07 11:25N 29°42' W 095°03'0 0.0
2017-Sep-07 11:00N 29°42' W 095°03'0 0.0
2017-Sep-07 10:28N 29°42' W 095°03'0 0.0
2017-Sep-07 08:45N 29°43' W 095°03'0 0.0
2017-Sep-07 08:27N 29°43' W 095°03'0 0.0
2017-Sep-07 06:49N 29°43' W 095°03'0 0.0
2017-Sep-07 06:25N 29°43' W 095°03'0 0.0
2017-Sep-07 05:56N 29°43' W 095°03'0 0.0
2017-Sep-07 05:30N 29°43' W 095°03'0 0.0
2017-Sep-07 04:58N 29°43' W 095°03'0 0.0
2017-Sep-07 04:27N 29°42' W 095°03'0 0.0
2017-Sep-07 03:47N 29°43' W 095°03'0 0.0
2017-Sep-07 03:22N 29°43' W 095°03'0 0.0
2017-Sep-07 02:58N 29°42' W 095°03'0 0.0
2017-Sep-07 02:24N 29°42' W 095°03'0 0.0
2017-Sep-07 00:56N 29°42' W 095°03'0 0.0
2017-Sep-06 23:26N 29°43' W 095°03'0 0.0
2017-Sep-06 22:27N 29°43' W 095°03'0 0.0
2017-Sep-06 21:52N 29°43' W 095°03'0 0.0
2017-Sep-06 21:23N 29°42' W 095°03'2 1.7
2017-Sep-06 20:15N 29°44' W 095°01'0 0.2
2017-Sep-06 19:57N 29°44' W 095°01'0 0.0
2017-Sep-06 15:03N 29°44' W 095°01'0 0.1
2017-Sep-06 14:34N 29°44' W 095°01'  

Dump ship's entire track history